Terminal Aerodrome Forecast
Issued by NWS

Home | Current Version | Previous Version | Text Only | Print | Product List | Glossary On
Versions: 1 2 3 4 5 6 7 8 9 10 11 12 13 14 15 16 17 18 19 20 21 22 23 24 25 26 27 28 29 30 31 32 33 34 35 36 37 38
000
FTUS41 KRNK 022340
TAFBCB
TAF
KBCB 022340Z 0300/0324 08005KT P6SM SCT005 OVC025
     FM030300 09007KT 4SM -DZ BR BKN004 OVC011
     FM031800 10008KT 6SM BR OVC007=

USA.gov is the U.S. government's official web portal to all federal, state and local government web resources and services.